Time;durP1;ratioP1;P1;durP2;ratioP2;P2;SDS_P1;SDS_P2;PMS_P1;PMS_P2;Temp;Humidity;BMP_temperature;BMP_pressure;BME280_temperature;BME280_humidity;BME280_pressure;Samples;Min_cycle;Max_cycle;Signal;HPM_P1;HPM_P2
2020/12/23 00:01:34;;;;;;;2.75;1.70;;;8.40;99.90;;;;;;4144186;28;20083;-88
2020/12/23 00:03:35;;;;;;;1.95;1.75;;;8.40;99.90;;;;;;4146968;28;20046;-88
2020/12/23 00:05:36;;;;;;;2.45;1.80;;;8.40;99.90;;;;;;4163346;28;20049;-88
2020/12/23 00:07:38;;;;;;;2.28;1.45;;;8.30;99.90;;;;;;4138928;28;20052;-88
2020/12/23 00:09:39;;;;;;;4.00;1.63;;;8.40;99.90;;;;;;4146692;28;20502;-88
2020/12/23 00:11:42;;;;;;;1.63;1.52;;;8.30;99.90;;;;;;4147324;28;20639;-89
2020/12/23 00:13:43;;;;;;;1.65;1.25;;;8.40;99.90;;;;;;4146516;28;20058;-87
2020/12/23 00:15:44;;;;;;;3.08;2.13;;;8.40;99.90;;;;;;4179824;28;20136;-88
2020/12/23 00:17:46;;;;;;;4.25;1.13;;;8.30;99.90;;;;;;4187681;28;20143;-88
2020/12/23 00:19:47;;;;;;;5.40;2.30;;;8.40;99.90;;;;;;4154681;28;20064;-87
2020/12/23 00:21:49;;;;;;;1.88;1.08;;;8.40;99.90;;;;;;4145444;28;20060;-88
2020/12/23 00:23:50;;;;;;;0.88;0.82;;;8.40;99.90;;;;;;4163545;28;20543;-88
2020/12/23 00:25:51;;;;;;;2.10;1.50;;;8.40;99.90;;;;;;4192301;28;20048;-88
2020/12/23 00:27:53;;;;;;;2.03;1.45;;;8.40;99.90;;;;;;4179506;28;20136;-88
2020/12/23 00:29:54;;;;;;;1.95;1.48;;;8.40;99.90;;;;;;4147322;28;20136;-88
2020/12/23 00:31:56;;;;;;;3.10;2.35;;;8.40;99.90;;;;;;4175131;28;20049;-88
2020/12/23 00:33:57;;;;;;;3.22;2.50;;;8.30;99.90;;;;;;4174460;28;20049;-88
2020/12/23 00:35:58;;;;;;;1.88;1.73;;;8.30;99.90;;;;;;4163374;28;20057;-88
2020/12/23 00:37:59;;;;;;;1.08;0.68;;;8.30;99.90;;;;;;4147539;28;20054;-88
2020/12/23 00:40:01;;;;;;;2.92;1.83;;;8.30;99.90;;;;;;4146596;28;20052;-88
2020/12/23 00:42:02;;;;;;;6.43;2.38;;;8.30;99.90;;;;;;4150172;28;20049;-88
2020/12/23 00:44:03;;;;;;;1.13;0.80;;;8.30;99.90;;;;;;4178290;28;20515;-88
2020/12/23 00:46:09;;;;;;;2.92;2.72;;;8.30;99.90;;;;;;4146573;28;20414;-88
2020/12/23 00:48:11;;;;;;;1.70;1.60;;;8.30;99.90;;;;;;4146714;28;20141;-87
2020/12/23 00:50:12;;;;;;;1.35;0.95;;;8.30;99.90;;;;;;4174036;28;20072;-92
2020/12/23 00:52:14;;;;;;;1.60;1.25;;;8.30;99.90;;;;;;4169786;28;20058;-88
2020/12/23 00:54:15;;;;;;;2.13;0.93;;;8.30;99.90;;;;;;4179028;28;20055;-87
2020/12/23 00:56:16;;;;;;;0.45;0.35;;;8.30;99.90;;;;;;4163154;28;20057;-88
2020/12/23 00:58:17;;;;;;;1.02;0.63;;;8.30;99.90;;;;;;4146112;28;20133;-87
2020/12/23 01:00:19;;;;;;;1.65;1.05;;;8.40;99.90;;;;;;4148191;28;20061;-88
2020/12/23 01:02:20;;;;;;;2.20;1.00;;;8.40;99.90;;;;;;4146652;28;20053;-88
2020/12/23 01:04:21;;;;;;;0.93;0.68;;;8.50;99.90;;;;;;4142648;28;21641;-89
2020/12/23 01:06:22;;;;;;;1.63;1.50;;;8.50;99.90;;;;;;4180882;28;20045;-88
2020/12/23 01:08:24;;;;;;;1.30;0.98;;;8.50;99.90;;;;;;4169356;28;20137;-87
2020/12/23 01:10:25;;;;;;;1.95;1.25;;;8.50;99.90;;;;;;4162030;28;20056;-87
2020/12/23 01:12:26;;;;;;;0.60;0.60;;;8.50;99.90;;;;;;4178231;28;20084;-87
2020/12/23 01:14:27;;;;;;;0.60;0.60;;;8.50;99.90;;;;;;4194826;28;20139;-88
2020/12/23 01:16:29;;;;;;;0.52;0.43;;;8.50;99.90;;;;;;4182117;28;20075;-88
2020/12/23 01:18:30;;;;;;;2.03;0.95;;;8.50;99.90;;;;;;4138432;28;20415;-88
2020/12/23 01:20:31;;;;;;;2.67;1.27;;;8.40;99.90;;;;;;4163204;28;20060;-88
2020/12/23 01:22:34;;;;;;;1.52;1.42;;;8.50;99.90;;;;;;4158278;28;20053;-88
2020/12/23 01:24:35;;;;;;;1.75;0.60;;;8.40;99.90;;;;;;4178973;28;20045;-87
2020/12/23 01:26:38;;;;;;;1.00;0.65;;;8.40;99.90;;;;;;4147036;28;20050;-87
2020/12/23 01:28:40;;;;;;;1.65;1.05;;;8.40;99.90;;;;;;4174111;28;20055;-88
2020/12/23 01:30:41;;;;;;;1.42;1.33;;;8.40;99.90;;;;;;4132886;28;20054;-88
2020/12/23 01:32:43;;;;;;;0.68;0.60;;;8.40;99.90;;;;;;4133597;28;20525;-87
2020/12/23 01:34:44;;;;;;;1.55;1.25;;;8.40;99.90;;;;;;4142643;28;20049;-87
2020/12/23 01:36:49;;;;;;;0.65;0.65;;;8.40;99.90;;;;;;4147175;28;20073;-87
2020/12/23 01:38:50;;;;;;;1.95;0.70;;;8.40;99.90;;;;;;4133020;28;20043;-87
2020/12/23 01:40:59;;;;;;;1.52;0.68;;;8.40;99.90;;;;;;4162376;28;20061;-88
2020/12/23 01:43:00;;;;;;;0.57;0.55;;;8.40;99.90;;;;;;4149959;28;20050;-87
2020/12/23 01:45:02;;;;;;;1.13;1.02;;;8.40;99.90;;;;;;4147994;28;20422;-87
2020/12/23 01:47:08;;;;;;;3.13;0.90;;;8.40;99.90;;;;;;4149406;28;20064;-87
2020/12/23 01:49:09;;;;;;;1.45;1.13;;;8.40;99.90;;;;;;4154321;28;20048;-87
2020/12/23 01:51:11;;;;;;;0.77;0.32;;;8.40;99.90;;;;;;4151772;28;24764;-87
2020/12/23 01:53:12;;;;;;;3.13;1.95;;;8.40;99.90;;;;;;4132593;28;20423;-88
2020/12/23 01:55:14;;;;;;;1.40;0.95;;;8.30;99.90;;;;;;4155985;28;20509;-87
2020/12/23 01:57:15;;;;;;;0.52;0.43;;;8.30;99.90;;;;;;4135512;28;20049;-88
2020/12/23 01:59:17;;;;;;;1.50;1.10;;;8.30;99.90;;;;;;4149266;28;20053;-89
2020/12/23 02:01:20;;;;;;;0.80;0.73;;;8.30;99.90;;;;;;4155725;28;20057;-88
2020/12/23 02:03:21;;;;;;;1.75;1.40;;;8.30;99.90;;;;;;4162354;28;20533;-89
2020/12/23 02:05:23;;;;;;;1.10;1.00;;;8.30;99.90;;;;;;4148828;28;20518;-87
2020/12/23 02:07:25;;;;;;;1.27;1.15;;;8.30;99.90;;;;;;4146711;28;20062;-87
2020/12/23 02:09:26;;;;;;;0.60;0.40;;;8.30;99.90;;;;;;4148586;28;20085;-87
2020/12/23 02:11:27;;;;;;;0.47;0.32;;;8.30;99.90;;;;;;4132875;28;20046;-88
2020/12/23 02:13:39;;;;;;;0.85;0.50;;;8.30;99.90;;;;;;4145925;28;20077;-88
2020/12/23 02:15:42;;;;;;;1.42;0.82;;;8.30;99.90;;;;;;4171855;28;20037;-87
2020/12/23 02:17:43;;;;;;;2.15;1.40;;;8.30;99.90;;;;;;4163921;28;20128;-87
2020/12/23 02:19:50;;;;;;;0.45;0.40;;;8.30;99.90;;;;;;4147384;28;20061;-87
2020/12/23 02:21:51;;;;;;;0.40;0.40;;;8.40;99.90;;;;;;4162390;28;20075;-88
2020/12/23 02:23:53;;;;;;;0.45;0.40;;;8.40;99.90;;;;;;4164932;28;20383;-87
2020/12/23 02:25:54;;;;;;;0.52;0.52;;;8.40;99.90;;;;;;4147065;28;20061;-88
2020/12/23 02:27:56;;;;;;;1.00;0.77;;;8.30;99.90;;;;;;4148599;28;20068;-87
2020/12/23 02:29:57;;;;;;;1.05;0.57;;;8.40;99.90;;;;;;4133329;28;20060;-88
2020/12/23 02:31:59;;;;;;;1.95;1.02;;;8.30;99.90;;;;;;4175732;28;20091;-88
2020/12/23 02:34:13;;;;;;;1.40;0.50;;;8.40;99.90;;;;;;4170117;28;20053;-89
2020/12/23 02:36:15;;;;;;;0.30;0.30;;;8.40;99.90;;;;;;4180890;28;20051;-91
2020/12/23 02:38:16;;;;;;;1.60;0.60;;;8.40;99.90;;;;;;4148740;28;20057;-87
2020/12/23 02:40:19;;;;;;;1.17;1.08;;;8.40;99.90;;;;;;4164347;28;20057;-87
2020/12/23 02:42:21;;;;;;;1.10;0.95;;;8.40;99.90;;;;;;4152031;28;20045;-88
2020/12/23 02:44:22;;;;;;;1.13;0.77;;;8.40;99.90;;;;;;4148449;28;20506;-87
2020/12/23 02:46:24;;;;;;;0.98;0.60;;;8.40;99.90;;;;;;4142537;28;20597;-88
2020/12/23 02:48:25;;;;;;;1.00;0.88;;;8.40;99.90;;;;;;4193486;28;20060;-90
2020/12/23 02:50:26;;;;;;;2.80;0.77;;;8.40;99.90;;;;;;4149078;28;20053;-88
2020/12/23 02:52:27;;;;;;;0.60;0.50;;;8.40;99.90;;;;;;4146523;28;20045;-88
2020/12/23 02:54:29;;;;;;;1.67;0.98;;;8.40;99.90;;;;;;4169562;28;20057;-90
2020/12/23 02:56:30;;;;;;;1.40;1.17;;;8.40;99.90;;;;;;4145496;28;20050;-88
2020/12/23 02:58:31;;;;;;;2.42;1.52;;;8.40;99.90;;;;;;4147960;28;20060;-89
2020/12/23 03:00:32;;;;;;;1.67;1.38;;;8.40;99.90;;;;;;4178957;28;20045;-90
2020/12/23 03:02:34;;;;;;;2.42;0.63;;;8.40;99.90;;;;;;4147720;28;20057;-89
2020/12/23 03:04:35;;;;;;;1.42;1.10;;;8.40;99.90;;;;;;4172304;28;20120;-89
2020/12/23 03:06:36;;;;;;;0.63;0.55;;;8.40;99.90;;;;;;4167519;28;20080;-89
2020/12/23 03:08:38;;;;;;;2.22;1.17;;;8.30;99.90;;;;;;4162844;28;20073;-88
2020/12/23 03:10:39;;;;;;;0.95;0.77;;;8.30;99.90;;;;;;4147547;28;20217;-89
2020/12/23 03:12:40;;;;;;;1.88;1.50;;;8.40;99.90;;;;;;4157974;28;20045;-89
2020/12/23 03:14:42;;;;;;;0.55;0.55;;;8.40;99.90;;;;;;4150711;28;20525;-89
2020/12/23 03:16:43;;;;;;;2.33;1.40;;;8.40;99.90;;;;;;4146749;28;20176;-89
2020/12/23 03:18:44;;;;;;;1.92;0.70;;;8.40;99.90;;;;;;4147704;28;20053;-88
2020/12/23 03:20:45;;;;;;;0.38;0.38;;;8.30;99.90;;;;;;4159098;28;20061;-89
2020/12/23 03:22:47;;;;;;;1.10;0.65;;;8.30;99.90;;;;;;4132402;28;20050;-88
2020/12/23 03:24:48;;;;;;;0.75;0.70;;;8.30;99.90;;;;;;4160912;28;20140;-89
2020/12/23 03:26:49;;;;;;;0.52;0.50;;;8.30;99.90;;;;;;4164630;28;20057;-89
2020/12/23 03:28:51;;;;;;;1.25;0.95;;;8.30;99.90;;;;;;4159011;28;20132;-88
2020/12/23 03:30:52;;;;;;;2.20;1.73;;;8.20;99.90;;;;;;4154701;28;20049;-88
2020/12/23 03:32:53;;;;;;;1.63;0.68;;;8.20;99.90;;;;;;4131628;28;20507;-89
2020/12/23 03:34:54;;;;;;;1.48;0.93;;;8.20;99.90;;;;;;4153559;28;20045;-88
2020/12/23 03:36:56;;;;;;;1.17;1.02;;;8.20;99.90;;;;;;4122673;28;20046;-89
2020/12/23 03:38:57;;;;;;;0.95;0.85;;;8.20;99.90;;;;;;4147770;28;20054;-89
2020/12/23 03:40:58;;;;;;;1.75;1.58;;;8.20;99.90;;;;;;4147359;28;20076;-90
2020/12/23 03:43:00;;;;;;;1.38;0.68;;;8.20;99.90;;;;;;4170948;28;20135;-89
2020/12/23 03:45:01;;;;;;;1.30;1.05;;;8.20;99.90;;;;;;4148870;28;20709;-88
2020/12/23 03:47:02;;;;;;;2.97;1.02;;;8.20;99.90;;;;;;4131459;28;20141;-89
2020/12/23 03:49:04;;;;;;;0.85;0.65;;;8.10;99.90;;;;;;4155649;28;20049;-88
2020/12/23 03:51:05;;;;;;;1.90;1.45;;;8.10;99.90;;;;;;4149005;28;20057;-88
2020/12/23 03:53:06;;;;;;;1.42;0.93;;;8.10;99.90;;;;;;4159123;28;20057;-88
2020/12/23 03:55:10;;;;;;;3.35;1.85;;;8.10;99.90;;;;;;4130845;28;20060;-88
2020/12/23 03:57:13;;;;;;;1.27;1.15;;;8.10;99.90;;;;;;4145146;28;20053;-89
2020/12/23 03:59:14;;;;;;;1.85;1.40;;;8.10;99.90;;;;;;4146688;28;20514;-88
2020/12/23 04:01:15;;;;;;;1.75;1.33;;;8.10;99.90;;;;;;4132278;28;20049;-88
2020/12/23 04:03:17;;;;;;;2.22;2.03;;;8.10;99.90;;;;;;4131591;28;20582;-88
2020/12/23 04:05:18;;;;;;;1.40;1.30;;;8.10;99.90;;;;;;4164230;28;20045;-88
2020/12/23 04:07:19;;;;;;;1.77;1.65;;;8.10;99.90;;;;;;4166227;28;20045;-89
2020/12/23 04:09:20;;;;;;;0.90;0.63;;;8.10;99.90;;;;;;4131337;28;20053;-88
2020/12/23 04:11:22;;;;;;;1.42;0.63;;;8.10;99.90;;;;;;4131008;28;20080;-89
2020/12/23 04:13:23;;;;;;;1.85;0.98;;;8.10;99.90;;;;;;4131100;28;20117;-89
2020/12/23 04:15:24;;;;;;;1.55;1.38;;;8.10;99.90;;;;;;4174822;28;20053;-86
2020/12/23 04:17:25;;;;;;;1.05;0.75;;;8.10;99.90;;;;;;4136610;28;20140;-89
2020/12/23 04:19:27;;;;;;;2.05;1.83;;;8.10;99.90;;;;;;4148951;28;20069;-88
2020/12/23 04:21:28;;;;;;;0.68;0.68;;;8.10;99.90;;;;;;4132353;28;20141;-89
2020/12/23 04:23:29;;;;;;;1.35;0.98;;;8.10;99.90;;;;;;4131670;28;20058;-89
2020/12/23 04:25:30;;;;;;;0.82;0.82;;;8.10;99.90;;;;;;4125634;28;20057;-89
2020/12/23 04:27:32;;;;;;;1.33;0.95;;;8.10;99.90;;;;;;4163172;28;20588;-89
2020/12/23 04:29:33;;;;;;;1.20;0.85;;;8.10;99.90;;;;;;4145052;28;20441;-89
2020/12/23 04:31:34;;;;;;;1.45;0.85;;;8.10;99.90;;;;;;4129944;28;20054;-90
2020/12/23 04:33:36;;;;;;;2.03;1.17;;;8.10;99.90;;;;;;4153193;28;20125;-89
2020/12/23 04:35:37;;;;;;;2.58;1.73;;;8.10;99.90;;;;;;4131113;28;20141;-89
2020/12/23 04:37:39;;;;;;;1.20;1.02;;;8.10;99.90;;;;;;4146590;28;20054;-89
2020/12/23 04:39:40;;;;;;;0.90;0.77;;;8.20;99.90;;;;;;4125101;28;20065;-88
2020/12/23 04:41:41;;;;;;;1.48;0.77;;;8.20;99.90;;;;;;4163482;28;20060;-89
2020/12/23 04:43:42;;;;;;;0.85;0.75;;;8.20;99.90;;;;;;4132250;28;20050;-89
2020/12/23 04:45:44;;;;;;;2.35;1.02;;;8.20;99.90;;;;;;4174409;28;20049;-89
2020/12/23 04:47:45;;;;;;;0.70;0.65;;;8.20;99.90;;;;;;4134005;28;20137;-89
2020/12/23 04:49:46;;;;;;;1.08;1.00;;;8.20;99.90;;;;;;4148956;28;20078;-89
2020/12/23 04:51:54;;;;;;;1.70;1.48;;;8.20;99.90;;;;;;4150059;28;20391;-88
2020/12/23 04:53:56;;;;;;;2.35;1.13;;;8.20;99.90;;;;;;4133957;28;20065;-90
2020/12/23 04:55:57;;;;;;;1.63;1.52;;;8.20;99.90;;;;;;4163543;28;20062;-90
2020/12/23 04:57:58;;;;;;;0.40;0.40;;;8.20;99.90;;;;;;4171750;28;20041;-90
2020/12/23 04:59:59;;;;;;;3.70;1.73;;;8.20;99.90;;;;;;4151315;28;20054;-90
2020/12/23 05:02:01;;;;;;;2.80;1.40;;;8.20;99.90;;;;;;4158945;28;20057;-89
2020/12/23 05:04:03;;;;;;;2.40;1.08;;;8.20;99.90;;;;;;4141403;28;20060;-89
2020/12/23 05:06:06;;;;;;;1.65;1.23;;;8.20;99.90;;;;;;4160940;28;20116;-88
2020/12/23 05:08:08;;;;;;;3.92;1.52;;;8.10;99.90;;;;;;4131883;28;20050;-89
2020/12/23 05:10:09;;;;;;;0.95;0.90;;;8.10;99.90;;;;;;4133201;28;20413;-89
2020/12/23 05:12:11;;;;;;;3.38;1.08;;;8.10;99.90;;;;;;4132172;28;20522;-89
2020/12/23 05:14:12;;;;;;;0.88;0.75;;;8.10;99.90;;;;;;4156809;28;20054;-89
2020/12/23 05:16:21;;;;;;;0.25;0.25;;;8.10;99.90;;;;;;4143350;28;20057;-90
2020/12/23 05:18:32;;;;;;;1.77;1.27;;;8.10;99.90;;;;;;4137987;28;20050;-89
2020/12/23 05:20:34;;;;;;;4.80;1.42;;;8.10;99.90;;;;;;4149766;28;20045;-90
2020/12/23 05:22:36;;;;;;;2.00;1.88;;;8.10;99.90;;;;;;4168069;28;20090;-89
2020/12/23 05:24:37;;;;;;;3.08;0.90;;;8.10;99.90;;;;;;4137089;28;20055;-90
2020/12/23 05:26:44;;;;;;;1.27;1.17;;;8.10;99.90;;;;;;4133262;28;20423;-90
2020/12/23 05:28:45;;;;;;;3.20;1.77;;;8.20;99.90;;;;;;4135008;28;20046;-89
2020/12/23 05:30:53;;;;;;;1.08;1.02;;;8.10;99.90;;;;;;4139160;28;20046;-88
2020/12/23 05:32:55;;;;;;;1.27;1.02;;;8.10;99.90;;;;;;4167599;28;20132;-89
2020/12/23 05:35:02;;;;;;;1.15;1.05;;;8.10;99.90;;;;;;4181020;28;20049;-87
2020/12/23 05:37:03;;;;;;;1.98;1.20;;;8.10;99.90;;;;;;4155798;28;20573;-87
2020/12/23 05:39:08;;;;;;;2.55;1.73;;;8.10;99.90;;;;;;4134644;28;20054;-89
2020/12/23 05:41:11;;;;;;;1.05;0.73;;;8.10;99.90;;;;;;4142099;28;20122;-87
2020/12/23 05:43:14;;;;;;;0.85;0.73;;;8.00;99.90;;;;;;4133226;28;20074;-89
2020/12/23 05:45:16;;;;;;;0.52;0.45;;;8.00;99.90;;;;;;4128401;28;20514;-89
2020/12/23 05:47:23;;;;;;;1.30;1.20;;;8.00;99.90;;;;;;4141003;28;20128;-87
2020/12/23 05:49:25;;;;;;;0.98;0.75;;;8.00;99.90;;;;;;4145891;28;20050;-86
2020/12/23 05:51:26;;;;;;;0.75;0.73;;;8.10;99.90;;;;;;4150697;28;20491;-87
2020/12/23 05:53:28;;;;;;;1.25;1.17;;;8.00;99.90;;;;;;4145014;28;20060;-87
2020/12/23 05:55:30;;;;;;;2.25;1.95;;;8.00;99.90;;;;;;4132017;28;20050;-87
2020/12/23 05:57:34;;;;;;;1.65;0.60;;;8.00;99.90;;;;;;4127709;28;20422;-90
2020/12/23 05:59:36;;;;;;;1.17;0.82;;;8.00;99.90;;;;;;4153404;28;20128;-89
2020/12/23 06:01:38;;;;;;;0.68;0.45;;;8.00;99.90;;;;;;4157737;28;20445;-87
2020/12/23 06:03:54;;;;;;;1.77;0.60;;;8.00;99.90;;;;;;4170511;28;20052;-89
2020/12/23 06:05:59;;;;;;;1.48;0.90;;;8.00;99.90;;;;;;4152016;28;20157;-87
2020/12/23 06:08:02;;;;;;;2.47;1.25;;;8.10;99.90;;;;;;4145321;28;20050;-87
2020/12/23 06:10:04;;;;;;;1.23;0.93;;;8.00;99.90;;;;;;4145929;28;20052;-88
2020/12/23 06:12:21;;;;;;;5.57;2.72;;;8.00;99.90;;;;;;4132851;28;20461;-88
2020/12/23 06:14:24;;;;;;;1.60;1.33;;;8.10;99.90;;;;;;4133391;28;20129;-87
2020/12/23 06:16:29;;;;;;;2.28;1.10;;;8.10;99.90;;;;;;4128663;28;20058;-86
2020/12/23 06:18:31;;;;;;;1.65;1.55;;;8.10;99.90;;;;;;4128090;28;20057;-86
2020/12/23 06:20:32;;;;;;;1.10;0.93;;;8.00;99.90;;;;;;4165194;28;20060;-85
2020/12/23 06:22:33;;;;;;;1.30;0.95;;;8.10;99.90;;;;;;4130914;28;20054;-87
2020/12/23 06:24:36;;;;;;;2.70;1.40;;;8.10;99.90;;;;;;4139896;28;20066;-88
2020/12/23 06:26:38;;;;;;;1.15;0.98;;;8.10;99.90;;;;;;4148040;28;20056;-86
2020/12/23 06:28:40;;;;;;;2.08;1.90;;;8.10;99.90;;;;;;4136527;28;20084;-87
2020/12/23 06:30:41;;;;;;;1.88;1.10;;;8.00;99.90;;;;;;4168353;28;20060;-88
2020/12/23 06:32:42;;;;;;;1.13;0.77;;;8.00;99.90;;;;;;4124857;28;20073;-86
2020/12/23 06:34:44;;;;;;;1.40;0.80;;;8.00;99.90;;;;;;4131657;28;20141;-87
2020/12/23 06:36:53;;;;;;;3.40;0.85;;;8.00;99.90;;;;;;4163025;28;20045;-87
2020/12/23 06:39:23;;;;;;;1.42;1.33;;;8.10;99.90;;;;;;4133072;28;20089;-88
2020/12/23 06:41:24;;;;;;;2.15;1.30;;;8.10;99.90;;;;;;4162109;28;20072;-87
2020/12/23 06:43:55;;;;;;;1.45;1.13;;;8.10;99.90;;;;;;4132054;28;20058;-88
2020/12/23 06:45:56;;;;;;;1.83;1.10;;;8.10;99.90;;;;;;4167809;28;20136;-87
2020/12/23 06:48:13;;;;;;;1.75;1.65;;;8.10;99.90;;;;;;4132215;28;20121;-87
2020/12/23 06:50:23;;;;;;;0.30;0.30;;;8.20;99.90;;;;;;4131832;28;20050;-88
2020/12/23 06:52:24;;;;;;;0.98;0.75;;;8.20;99.90;;;;;;4158250;28;20583;-87
2020/12/23 06:55:02;;;;;;;1.70;1.60;;;8.30;99.90;;;;;;4160701;28;20128;-87
2020/12/23 06:57:04;;;;;;;3.65;0.90;;;8.30;99.90;;;;;;4165561;28;20485;-88
2020/12/23 06:59:06;;;;;;;4.22;1.25;;;8.40;99.90;;;;;;4130106;28;20072;-88
2020/12/23 07:01:20;;;;;;;0.57;0.57;;;8.40;99.90;;;;;;4146721;28;20041;-88
2020/12/23 07:03:21;;;;;;;2.15;1.40;;;8.40;99.90;;;;;;4129566;28;20051;-89
2020/12/23 07:05:23;;;;;;;1.75;0.73;;;8.40;99.90;;;;;;4166090;28;20104;-88
2020/12/23 07:07:42;;;;;;;1.67;0.85;;;8.40;99.90;;;;;;4159139;28;20103;-87
2020/12/23 07:09:50;;;;;;;1.48;0.88;;;8.40;99.90;;;;;;4147664;28;20045;-87
2020/12/23 07:11:52;;;;;;;1.85;1.33;;;8.40;99.90;;;;;;4170428;28;20129;-86
2020/12/23 07:13:59;;;;;;;2.78;0.88;;;8.40;99.90;;;;;;4171512;28;20049;-87
2020/12/23 07:16:00;;;;;;;2.17;2.00;;;8.40;99.90;;;;;;4166210;28;20045;-86
2020/12/23 07:18:04;;;;;;;0.45;0.45;;;8.40;99.90;;;;;;4162454;28;20037;-86
2020/12/23 07:20:06;;;;;;;1.10;0.82;;;8.40;99.90;;;;;;4164498;28;20055;-87
2020/12/23 07:22:07;;;;;;;1.13;0.45;;;8.40;99.90;;;;;;4161044;28;20065;-87
2020/12/23 07:24:09;;;;;;;1.73;1.63;;;8.50;99.90;;;;;;4130171;28;20563;-87
2020/12/23 07:26:11;;;;;;;1.52;1.42;;;8.50;99.90;;;;;;4147219;28;20077;-87
2020/12/23 07:28:14;;;;;;;1.15;0.85;;;8.50;99.90;;;;;;4161054;28;20048;-87
2020/12/23 07:30:15;;;;;;;1.90;1.80;;;8.50;99.90;;;;;;4161676;28;20049;-88
2020/12/23 07:32:16;;;;;;;1.15;1.05;;;8.50;99.90;;;;;;4147216;28;20046;-90
2020/12/23 07:34:18;;;;;;;4.15;2.03;;;8.50;99.90;;;;;;4143840;28;20068;-84
2020/12/23 07:36:19;;;;;;;1.90;1.80;;;8.50;99.90;;;;;;4172275;28;20167;-85
2020/12/23 07:38:24;;;;;;;2.47;0.85;;;8.50;99.90;;;;;;4158110;28;20049;-85
2020/12/23 07:40:26;;;;;;;1.92;1.75;;;8.40;99.90;;;;;;4161260;28;20048;-88
2020/12/23 07:42:27;;;;;;;2.85;1.65;;;8.40;99.90;;;;;;4130272;28;20490;-87
2020/12/23 07:44:28;;;;;;;2.15;1.75;;;8.40;99.90;;;;;;4130271;28;20061;-85
2020/12/23 07:46:29;;;;;;;1.45;1.23;;;8.40;99.90;;;;;;4161675;28;20057;-86
2020/12/23 07:48:30;;;;;;;3.38;1.13;;;8.40;99.90;;;;;;4143352;28;20407;-88
2020/12/23 07:50:36;;;;;;;3.67;1.33;;;8.50;99.90;;;;;;4130667;28;20137;-89
2020/12/23 07:52:40;;;;;;;4.40;1.50;;;8.50;99.90;;;;;;4170176;28;20055;-87
2020/12/23 07:54:41;;;;;;;1.55;0.75;;;8.50;99.90;;;;;;4160537;28;20601;-87
2020/12/23 07:56:42;;;;;;;1.67;1.58;;;8.50;99.90;;;;;;4162607;28;20053;-88
2020/12/23 07:58:46;;;;;;;1.98;1.60;;;8.50;99.90;;;;;;4146294;28;20080;-84
2020/12/23 08:00:48;;;;;;;1.38;0.85;;;8.60;99.90;;;;;;4159293;28;20049;-87
2020/12/23 08:02:53;;;;;;;1.80;0.85;;;8.60;99.90;;;;;;4163861;28;20054;-89
2020/12/23 08:04:54;;;;;;;;;;;8.70;99.90;;;;;;4130639;28;20137;-88
2020/12/23 08:06:55;;;;;;;2.20;1.13;;;8.70;99.90;;;;;;4159962;28;19921;-86
2020/12/23 08:08:56;;;;;;;0.82;0.65;;;8.80;99.90;;;;;;4145869;28;20605;-85
2020/12/23 08:10:57;;;;;;;1.48;0.88;;;8.80;99.90;;;;;;4161759;28;20052;-86
2020/12/23 08:13:01;;;;;;;1.23;1.10;;;8.90;99.90;;;;;;4158667;28;20053;-86
2020/12/23 08:15:12;;;;;;;1.15;0.57;;;9.00;99.90;;;;;;4145866;28;20520;-88
2020/12/23 08:17:23;;;;;;;1.67;1.13;;;9.00;99.90;;;;;;4171008;28;20045;-88
2020/12/23 08:19:24;;;;;;;1.38;0.82;;;9.10;99.90;;;;;;4156395;28;20063;-92
2020/12/23 08:21:26;;;;;;;2.38;1.77;;;9.20;99.90;;;;;;4159848;28;20183;-89
2020/12/23 08:23:27;;;;;;;2.03;0.93;;;9.30;99.90;;;;;;4162166;28;20132;-87
2020/12/23 08:25:29;;;;;;;1.10;0.57;;;9.40;99.90;;;;;;4158807;28;20132;-85
2020/12/23 08:27:30;;;;;;;1.75;1.35;;;9.50;99.90;;;;;;4158839;28;20057;-91
2020/12/23 08:29:31;;;;;;;1.90;1.60;;;9.60;99.90;;;;;;4165906;28;20046;-90
2020/12/23 08:31:33;;;;;;;1.77;0.88;;;9.60;99.90;;;;;;4144044;28;20502;-90
2020/12/23 08:33:34;;;;;;;0.80;0.60;;;9.70;99.90;;;;;;4128465;28;20046;-85
2020/12/23 08:35:38;;;;;;;1.52;1.35;;;9.80;99.90;;;;;;4148442;28;20127;-88
2020/12/23 08:37:39;;;;;;;0.85;0.50;;;9.90;99.90;;;;;;4129952;28;20092;-89
2020/12/23 08:39:40;;;;;;;1.20;1.00;;;10.00;99.90;;;;;;4143976;28;20121;-91
2020/12/23 08:41:41;;;;;;;1.38;1.08;;;10.10;99.90;;;;;;4147216;28;20056;-91
2020/12/23 08:43:44;;;;;;;0.47;0.43;;;10.20;99.90;;;;;;4189307;28;20405;-89
2020/12/23 08:45:46;;;;;;;1.40;0.60;;;10.30;99.90;;;;;;4161579;28;20140;-89
2020/12/23 08:47:47;;;;;;;0.70;0.40;;;10.40;99.90;;;;;;4164609;28;20061;-91
2020/12/23 08:49:48;;;;;;;3.53;0.90;;;10.50;99.90;;;;;;4159510;28;20053;-91
2020/12/23 08:51:50;;;;;;;0.93;0.80;;;10.60;99.90;;;;;;4160618;28;20048;-91
2020/12/23 08:53:54;;;;;;;1.23;1.05;;;10.60;99.90;;;;;;4130881;28;20072;-91
2020/12/23 08:56:00;;;;;;;1.75;0.80;;;10.70;99.90;;;;;;4173898;28;20100;-90
2020/12/23 08:58:08;;;;;;;1.67;1.05;;;10.70;99.90;;;;;;4145645;28;20053;-89
2020/12/23 09:00:18;;;;;;;0.50;0.47;;;10.80;99.90;;;;;;4165561;28;20073;-91
2020/12/23 09:02:19;;;;;;;0.60;0.30;;;10.90;99.90;;;;;;4164398;28;20620;-92
2020/12/23 09:04:20;;;;;;;1.10;1.00;;;10.90;99.90;;;;;;4146144;28;20128;-91
2020/12/23 09:06:22;;;;;;;1.05;0.95;;;11.00;99.90;;;;;;4151530;28;20071;-91
2020/12/23 09:08:30;;;;;;;0.75;0.50;;;11.10;99.90;;;;;;4148290;28;20072;-91
2020/12/23 09:10:32;;;;;;;0.70;0.35;;;11.10;99.90;;;;;;4171421;28;20072;-91
2020/12/23 09:12:33;;;;;;;1.10;1.08;;;11.10;99.90;;;;;;4163706;28;20124;-92
2020/12/23 09:14:37;;;;;;;0.85;0.65;;;11.20;99.90;;;;;;4165640;28;20119;-91
2020/12/23 09:16:50;;;;;;;0.70;0.50;;;11.30;99.90;;;;;;4160299;28;20050;-90
2020/12/23 09:18:51;;;;;;;1.55;0.60;;;11.20;99.90;;;;;;4160733;28;20120;-91
2020/12/23 09:20:59;;;;;;;2.03;0.43;;;11.30;99.90;;;;;;4170279;28;20063;-90
2020/12/23 09:23:01;;;;;;;0.82;0.57;;;11.40;99.90;;;;;;4164838;28;20110;-91
2020/12/23 09:25:12;;;;;;;0.50;0.40;;;11.40;99.90;;;;;;4166490;28;20132;-91
2020/12/23 09:27:24;;;;;;;2.40;0.52;;;11.50;99.90;;;;;;4153726;28;20076;-89
2020/12/23 09:29:40;;;;;;;1.40;0.65;;;11.50;99.90;;;;;;4195351;28;20049;-92
2020/12/23 09:31:53;;;;;;;2.10;0.93;;;11.50;99.90;;;;;;4174654;28;20510;-91
2020/12/23 09:33:54;;;;;;;1.48;0.65;;;11.50;99.90;;;;;;4160204;28;20515;-90
2020/12/23 09:36:05;;;;;;;0.68;0.50;;;11.50;99.90;;;;;;4181828;28;20033;-89
2020/12/23 09:38:08;;;;;;;0.30;0.30;;;11.50;99.90;;;;;;4181898;28;20041;-90
2020/12/23 09:40:12;;;;;;;0.68;0.50;;;11.60;99.90;;;;;;4189682;28;20041;-90
2020/12/23 09:42:13;;;;;;;1.02;0.30;;;11.60;99.90;;;;;;4199012;28;20063;-87
2020/12/23 09:44:15;;;;;;;1.17;0.82;;;11.60;99.90;;;;;;4185743;28;20064;-84
2020/12/23 09:46:17;;;;;;;0.30;0.30;;;11.70;99.90;;;;;;4199826;28;20093;-86
2020/12/23 09:48:19;;;;;;;1.38;0.77;;;11.70;99.90;;;;;;4202819;28;20061;-86
2020/12/23 09:50:20;;;;;;;0.93;0.65;;;11.70;99.90;;;;;;4182283;28;20121;-88
2020/12/23 09:52:21;;;;;;;0.55;0.35;;;11.70;99.90;;;;;;4181882;28;20041;-90
2020/12/23 09:54:22;;;;;;;0.63;0.40;;;11.80;99.90;;;;;;4188076;28;20507;-90
2020/12/23 09:56:24;;;;;;;0.47;0.10;;;11.90;99.90;;;;;;4176753;28;20076;-86
2020/12/23 09:58:27;;;;;;;0.70;0.65;;;11.90;99.90;;;;;;4165144;28;20517;-88
2020/12/23 10:00:28;;;;;;;0.73;0.30;;;11.90;99.90;;;;;;4144302;28;20046;-91
2020/12/23 10:02:29;;;;;;;0.57;0.50;;;12.00;99.90;;;;;;4158458;28;20065;-87
2020/12/23 10:04:31;;;;;;;0.13;0.13;;;12.00;99.90;;;;;;4201694;28;20155;-93
2020/12/23 10:06:32;;;;;;;0.63;0.38;;;12.10;99.90;;;;;;4163671;28;20045;-89
2020/12/23 10:08:33;;;;;;;1.60;0.50;;;12.10;99.90;;;;;;4172400;28;20056;-93
2020/12/23 10:10:35;;;;;;;0.20;0.20;;;12.20;99.90;;;;;;4168151;28;20064;-89
2020/12/23 10:12:37;;;;;;;0.50;0.50;;;12.20;99.90;;;;;;4181386;28;20128;-91
2020/12/23 10:14:38;;;;;;;0.63;0.22;;;12.30;99.90;;;;;;4171541;28;20041;-94
2020/12/23 10:16:39;;;;;;;0.47;0.30;;;12.30;99.90;;;;;;4183711;28;20049;-90
2020/12/23 10:18:40;;;;;;;0.30;0.20;;;12.40;99.90;;;;;;4159534;28;20417;-91
2020/12/23 10:20:42;;;;;;;0.40;0.30;;;12.40;99.90;;;;;;4143030;28;20156;-96
2020/12/23 10:22:43;;;;;;;0.70;0.35;;;12.50;99.90;;;;;;4175237;28;20056;-94
2020/12/23 10:24:44;;;;;;;1.13;0.30;;;12.50;99.90;;;;;;4142320;28;20065;-89
2020/12/23 10:26:51;;;;;;;0.63;0.43;;;12.50;99.90;;;;;;4137337;28;20054;-89
2020/12/23 10:28:52;;;;;;;0.30;0.30;;;12.50;99.90;;;;;;4158267;28;20060;-88
2020/12/23 10:30:54;;;;;;;0.70;0.20;;;12.60;99.90;;;;;;4152831;28;20107;-91
2020/12/23 10:32:55;;;;;;;0.17;0.13;;;12.60;99.90;;;;;;4144927;28;20089;-87
2020/12/23 10:34:56;;;;;;;0.20;0.20;;;12.60;99.90;;;;;;4164357;28;20056;-86
2020/12/23 10:36:57;;;;;;;0.30;0.20;;;12.70;99.90;;;;;;4160643;28;20052;-89
2020/12/23 10:38:59;;;;;;;0.50;0.30;;;12.80;99.60;;;;;;4164108;28;20115;-93
2020/12/23 10:41:00;;;;;;;0.17;0.15;;;12.90;99.50;;;;;;4148203;28;20041;-87
2020/12/23 10:43:02;;;;;;;0.40;0.25;;;12.90;99.40;;;;;;4158798;28;20057;-86
2020/12/23 10:45:06;;;;;;;0.43;0.43;;;13.00;99.40;;;;;;4163891;28;20129;-86
2020/12/23 10:47:08;;;;;;;0.10;0.10;;;13.00;99.30;;;;;;4146782;28;20111;-88